Ft Sturla — IBXV — position and weather

sailwx.info

Track history (hours):
 
Tides and Currents Weather Stations Pressure Air Temp Water Temp Dewpoint Dewpoint Depression Visibility Wind Speed Wind Dir Waves Ship Positions

Ft Sturla

Last reported at 2016-Aug-22 02:33 UTC. Time now 2016-Aug-24 10:21 UTC.
Position N 42°12' E 010°29'.

Length 120 m; draft 7.5 m.

Type: Ship (hazmat cat A). MMSI: 247282200.

Date/timePositionNaut miles runAvg speedWind from/ knotsBaromVisibWave heightAir tempDewpointWater temp
2016-Aug-22 02:33N 42°12' E 010°29'35 8.8
2016-Aug-21 22:33N 42°33' E 009°52'3610.9
2016-Aug-21 19:15N 43°07' E 009°37'810.8
2016-Aug-21 18:33N 43°09' E 009°27'1111.1
2016-Aug-21 17:33N 43°08' E 009°11'18310.5
2016-Aug-21 00:03N 43°12' E 005°01'611.6
2016-Aug-20 23:33N 43°18' E 004°59'6 5.6
2016-Aug-20 22:32N 43°24' E 004°60'0 0.0
2016-Aug-20 21:32N 43°24' E 004°60'0 0.0
2016-Aug-20 20:32N 43°24' E 004°60'0 0.0
2016-Aug-20 19:32N 43°24' E 004°60'0 0.0
2016-Aug-20 18:29N 43°24' E 004°60'0 0.0
2016-Aug-20 17:32N 43°24' E 004°60'0 0.0
2016-Aug-20 16:32N 43°24' E 004°60'0 0.0
2016-Aug-20 15:32N 43°24' E 004°60'0 0.0
2016-Aug-20 14:32N 43°24' E 004°60'0 0.0
2016-Aug-20 13:32N 43°24' E 004°60'0 0.0
2016-Aug-20 12:32N 43°24' E 004°60'0 0.0
2016-Aug-20 11:32N 43°24' E 004°60'0 0.0
2016-Aug-20 10:32N 43°24' E 004°60'0 0.0
2016-Aug-20 09:32N 43°24' E 004°60'0 0.0
2016-Aug-20 08:32N 43°24' E 004°60'0 0.0
2016-Aug-20 07:32N 43°24' E 004°60'0 0.0
2016-Aug-20 06:32N 43°24' E 004°60'1 1.5
2016-Aug-20 05:33N 43°23' E 004°58'0 0.0
2016-Aug-20 04:33N 43°23' E 004°58'0 0.0
2016-Aug-20 03:33N 43°23' E 004°58'0 0.0
2016-Aug-20 02:33N 43°23' E 004°58'0 0.0
2016-Aug-20 01:30N 43°23' E 004°58'0 0.0
2016-Aug-20 00:34N 43°23' E 004°58'0 0.0
2016-Aug-19 23:33N 43°23' E 004°58'0 0.0
2016-Aug-19 22:33N 43°23' E 004°58'0 0.0
2016-Aug-19 21:33N 43°23' E 004°58'0 0.0
2016-Aug-19 20:30N 43°23' E 004°58'0 0.1
2016-Aug-19 19:33N 43°23' E 004°58'0 0.0
2016-Aug-19 18:33N 43°23' E 004°58'0 0.0
2016-Aug-19 17:33N 43°23' E 004°58'0 0.1
2016-Aug-19 16:33N 43°23' E 004°58'0 0.0
2016-Aug-19 15:33N 43°23' E 004°58'0 0.0
2016-Aug-19 14:33N 43°23' E 004°58'0 0.0
2016-Aug-19 13:30N 43°23' E 004°58'0 0.0
2016-Aug-19 12:33N 43°23' E 004°58'0 0.0
2016-Aug-19 11:33N 43°23' E 004°58'0 0.0
2016-Aug-19 10:33N 43°23' E 004°58'0 0.0
2016-Aug-19 09:33N 43°23' E 004°58'0 0.1
2016-Aug-19 08:33N 43°23' E 004°58'0 0.0
2016-Aug-19 07:33N 43°23' E 004°58'0 0.0
2016-Aug-19 06:33N 43°23' E 004°58'0 0.0
2016-Aug-19 05:33N 43°23' E 004°58'0 0.1
2016-Aug-19 04:33N 43°23' E 004°58'0 0.0
2016-Aug-19 03:34N 43°23' E 004°58'0 0.0
2016-Aug-19 02:30N 43°23' E 004°58'0 0.0
2016-Aug-19 01:27N 43°23' E 004°58'0 0.0
2016-Aug-19 00:33N 43°23' E 004°58'0 0.0
2016-Aug-18 23:33N 43°23' E 004°58'0 0.0
2016-Aug-18 22:33N 43°23' E 004°58'0 0.0
2016-Aug-18 21:33N 43°23' E 004°58'1 0.8
2016-Aug-18 20:33N 43°23' E 004°58'1110.9
2016-Aug-18 19:33N 43°12' E 005°03'1211.5
2016-Aug-18 18:31N 43°05' E 005°16'3711.3
2016-Aug-18 15:17N 42°49' E 006°00'15711.3
2016-Aug-18 01:23N 43°08' E 009°34'117 3.3
2016-Aug-16 14:23N 42°04' E 011°47'0 0.1
2016-Aug-16 13:28N 42°04' E 011°47'6 6.5
2016-Aug-16 12:32N 42°05' E 011°39'2511.3
2016-Aug-16 10:22N 42°08' E 011°06'1011.4
2016-Aug-16 09:31N 42°09' E 010°53'8 8.4
2016-Aug-16 08:31N 42°10' E 010°41'9 9.1
2016-Aug-16 07:33N 42°11' E 010°30'1210.8
2016-Aug-16 06:28N 42°13' E 010°14'4510.7
2016-Aug-16 02:17N 42°51' E 009°44'2011.5
2016-Aug-16 00:33N 43°09' E 009°33'12 9.1
2016-Aug-15 23:13N 43°08' E 009°16'711.1
2016-Aug-15 22:34N 43°07' E 009°06'1211.6
2016-Aug-15 21:31N 43°05' E 008°50'1111.5
2016-Aug-15 20:33N 43°03' E 008°35'1211.6
2016-Aug-15 19:34N 43°01' E 008°19'1211.7
2016-Aug-15 18:32N 42°59' E 008°03'1211.4
2016-Aug-15 17:31N 42°56' E 007°48'1111.3
2016-Aug-15 16:34N 42°55' E 007°33'1211.7
2016-Aug-15 15:34N 42°52' E 007°18'1212.0
2016-Aug-15 14:33N 42°50' E 007°01'1211.9
2016-Aug-15 13:33N 42°48' E 006°45'1111.2
2016-Aug-15 12:34N 42°46' E 006°30'1110.7
2016-Aug-15 11:34N 42°44' E 006°16'1110.6
2016-Aug-15 10:34N 42°46' E 006°02'1210.6
2016-Aug-15 09:26N 42°50' E 005°46'1010.8
2016-Aug-15 08:32N 42°52' E 005°33'1211.0
2016-Aug-15 07:24N 42°56' E 005°17'28 9.9
2016-Aug-15 04:33N 43°20' E 004°58'4 3.5
2016-Aug-15 03:32N 43°24' E 004°60'0 0.0
2016-Aug-15 02:32N 43°24' E 004°60'0 0.0
2016-Aug-15 01:32N 43°24' E 004°60'0 0.0
2016-Aug-15 00:32N 43°24' E 004°60'0 0.0
2016-Aug-14 23:32N 43°24' E 004°60'0 0.0
2016-Aug-14 22:29N 43°24' E 004°60'0 0.0
2016-Aug-14 21:32N 43°24' E 004°60'0 0.0
2016-Aug-14 20:32N 43°24' E 004°60'0 0.0
2016-Aug-14 19:32N 43°24' E 004°60'0 0.0
2016-Aug-14 18:32N 43°24' E 004°60'0 0.0
2016-Aug-14 17:32N 43°24' E 004°60'0 0.0
2016-Aug-14 16:32N 43°24' E 004°60'0 0.0
2016-Aug-14 15:32N 43°24' E 004°60'0 0.0
2016-Aug-14 14:32N 43°24' E 004°60'0 0.0
2016-Aug-14 13:32N 43°24' E 004°60'0 0.0
2016-Aug-14 12:32N 43°24' E 004°60'0 0.0
2016-Aug-14 11:32N 43°24' E 004°60'0 0.0
2016-Aug-14 10:32N 43°24' E 004°60'0 0.0
2016-Aug-14 09:32N 43°24' E 004°60'0 0.0
2016-Aug-14 08:32N 43°24' E 004°60'0 0.0
2016-Aug-14 07:33N 43°24' E 004°60'3 3.5
2016-Aug-14 06:33N 43°25' E 004°55'0 0.0
2016-Aug-14 04:33N 43°25' E 004°55'0 0.0
2016-Aug-14 03:33N 43°25' E 004°55'0 0.0
2016-Aug-14 02:33N 43°25' E 004°55'0 0.0
2016-Aug-14 01:33N 43°25' E 004°55'0 0.0
2016-Aug-14 00:33N 43°25' E 004°55'0 0.0
2016-Aug-13 23:33N 43°25' E 004°55'0 0.0
2016-Aug-13 22:27N 43°25' E 004°55'0 0.0
2016-Aug-13 21:33N 43°25' E 004°55'0 0.1
2016-Aug-13 20:33N 43°25' E 004°55'0 0.0
2016-Aug-13 19:30N 43°25' E 004°55'0 0.0
2016-Aug-13 18:33N 43°25' E 004°55'0 0.0
2016-Aug-13 17:33N 43°25' E 004°55'0 0.0
2016-Aug-13 16:33N 43°25' E 004°55'0 0.0
2016-Aug-13 15:33N 43°25' E 004°55'0 0.0
2016-Aug-13 14:33N 43°25' E 004°55'0 0.0
2016-Aug-13 13:33N 43°25' E 004°55'0 0.0
2016-Aug-13 12:33N 43°25' E 004°55'0 0.0
2016-Aug-13 11:33N 43°25' E 004°55'0 0.0
2016-Aug-13 10:30N 43°25' E 004°55'0 0.0
2016-Aug-13 09:33N 43°25' E 004°55'0 0.0
2016-Aug-13 08:33N 43°25' E 004°55'0 0.1
2016-Aug-13 07:33N 43°25' E 004°55'0 0.0
2016-Aug-13 06:33N 43°25' E 004°55'0 0.0
2016-Aug-13 05:33N 43°25' E 004°55'0 0.0
2016-Aug-13 04:30N 43°25' E 004°55'0 0.0
2016-Aug-13 03:33N 43°25' E 004°55'0 0.0
2016-Aug-13 02:33N 43°25' E 004°55'0 0.0
2016-Aug-13 01:33N 43°25' E 004°55'0 0.0
2016-Aug-13 00:30N 43°25' E 004°55'0 0.0
2016-Aug-12 23:30N 43°25' E 004°55'0 0.1
2016-Aug-12 22:33N 43°25' E 004°55'0 0.0
2016-Aug-12 21:33N 43°25' E 004°55'0 0.0
2016-Aug-12 20:33N 43°25' E 004°55'0 0.0
2016-Aug-12 19:30N 43°25' E 004°55'0 0.0
2016-Aug-12 18:33N 43°25' E 004°55'0 0.0
2016-Aug-12 17:33N 43°25' E 004°55'0 0.0
2016-Aug-12 16:33N 43°25' E 004°55'0 0.0
2016-Aug-12 15:30N 43°25' E 004°55'0 0.0
2016-Aug-12 14:33N 43°25' E 004°55'0 0.0
2016-Aug-12 13:33N 43°25' E 004°55'0 0.0
2016-Aug-12 12:33N 43°25' E 004°55'0 0.0
2016-Aug-12 11:33N 43°25' E 004°55'0 0.1
2016-Aug-12 10:30N 43°25' E 004°55'0 0.0
2016-Aug-12 09:33N 43°25' E 004°55'0 0.0
2016-Aug-12 08:30N 43°25' E 004°55'0 0.0
2016-Aug-12 07:30N 43°25' E 004°55'0 0.0
2016-Aug-12 06:30N 43°25' E 004°55'0 0.0
2016-Aug-12 05:30N 43°25' E 004°55'0 0.0
2016-Aug-12 04:30N 43°25' E 004°55'0 0.0
2016-Aug-12 03:30N 43°25' E 004°55'  
Track history (hours):
 
Tides and Currents Weather Stations Pressure Air Temp Water Temp Dewpoint Dewpoint Depression Visibility Wind Speed Wind Dir Waves Ship Positions

Ft Sturla

Last reported at 2016-Aug-22 02:33 UTC. Time now 2016-Aug-24 10:21 UTC.
Position N 42°12' E 010°29'.

Length 120 m; draft 7.5 m.

Type: Ship (hazmat cat A). MMSI: 247282200.

Date/timePositionNaut miles runAvg speedWind from/ knotsBaromVisibWave heightAir tempDewpointWater temp
2016-Aug-22 02:33N 42°12' E 010°29'35 8.8
2016-Aug-21 22:33N 42°33' E 009°52'3610.9
2016-Aug-21 19:15N 43°07' E 009°37'810.8
2016-Aug-21 18:33N 43°09' E 009°27'1111.1
2016-Aug-21 17:33N 43°08' E 009°11'18310.5
2016-Aug-21 00:03N 43°12' E 005°01'611.6
2016-Aug-20 23:33N 43°18' E 004°59'6 5.6
2016-Aug-20 22:32N 43°24' E 004°60'0 0.0
2016-Aug-20 21:32N 43°24' E 004°60'0 0.0
2016-Aug-20 20:32N 43°24' E 004°60'0 0.0
2016-Aug-20 19:32N 43°24' E 004°60'0 0.0
2016-Aug-20 18:29N 43°24' E 004°60'0 0.0
2016-Aug-20 17:32N 43°24' E 004°60'0 0.0
2016-Aug-20 16:32N 43°24' E 004°60'0 0.0
2016-Aug-20 15:32N 43°24' E 004°60'0 0.0
2016-Aug-20 14:32N 43°24' E 004°60'0 0.0
2016-Aug-20 13:32N 43°24' E 004°60'0 0.0
2016-Aug-20 12:32N 43°24' E 004°60'0 0.0
2016-Aug-20 11:32N 43°24' E 004°60'0 0.0
2016-Aug-20 10:32N 43°24' E 004°60'0 0.0
2016-Aug-20 09:32N 43°24' E 004°60'0 0.0
2016-Aug-20 08:32N 43°24' E 004°60'0 0.0
2016-Aug-20 07:32N 43°24' E 004°60'0 0.0
2016-Aug-20 06:32N 43°24' E 004°60'1 1.5
2016-Aug-20 05:33N 43°23' E 004°58'0 0.0
2016-Aug-20 04:33N 43°23' E 004°58'0 0.0
2016-Aug-20 03:33N 43°23' E 004°58'0 0.0
2016-Aug-20 02:33N 43°23' E 004°58'0 0.0
2016-Aug-20 01:30N 43°23' E 004°58'0 0.0
2016-Aug-20 00:34N 43°23' E 004°58'0 0.0
2016-Aug-19 23:33N 43°23' E 004°58'0 0.0
2016-Aug-19 22:33N 43°23' E 004°58'0 0.0
2016-Aug-19 21:33N 43°23' E 004°58'0 0.0
2016-Aug-19 20:30N 43°23' E 004°58'0 0.1
2016-Aug-19 19:33N 43°23' E 004°58'0 0.0
2016-Aug-19 18:33N 43°23' E 004°58'0 0.0
2016-Aug-19 17:33N 43°23' E 004°58'0 0.1
2016-Aug-19 16:33N 43°23' E 004°58'0 0.0
2016-Aug-19 15:33N 43°23' E 004°58'0 0.0
2016-Aug-19 14:33N 43°23' E 004°58'0 0.0
2016-Aug-19 13:30N 43°23' E 004°58'0 0.0
2016-Aug-19 12:33N 43°23' E 004°58'0 0.0
2016-Aug-19 11:33N 43°23' E 004°58'0 0.0
2016-Aug-19 10:33N 43°23' E 004°58'0 0.0
2016-Aug-19 09:33N 43°23' E 004°58'0 0.1
2016-Aug-19 08:33N 43°23' E 004°58'0 0.0
2016-Aug-19 07:33N 43°23' E 004°58'0 0.0
2016-Aug-19 06:33N 43°23' E 004°58'0 0.0
2016-Aug-19 05:33N 43°23' E 004°58'0 0.1
2016-Aug-19 04:33N 43°23' E 004°58'0 0.0
2016-Aug-19 03:34N 43°23' E 004°58'0 0.0
2016-Aug-19 02:30N 43°23' E 004°58'0 0.0
2016-Aug-19 01:27N 43°23' E 004°58'0 0.0
2016-Aug-19 00:33N 43°23' E 004°58'0 0.0
2016-Aug-18 23:33N 43°23' E 004°58'0 0.0
2016-Aug-18 22:33N 43°23' E 004°58'0 0.0
2016-Aug-18 21:33N 43°23' E 004°58'1 0.8
2016-Aug-18 20:33N 43°23' E 004°58'1110.9
2016-Aug-18 19:33N 43°12' E 005°03'1211.5
2016-Aug-18 18:31N 43°05' E 005°16'3711.3
2016-Aug-18 15:17N 42°49' E 006°00'15711.3
2016-Aug-18 01:23N 43°08' E 009°34'117 3.3
2016-Aug-16 14:23N 42°04' E 011°47'0 0.1
2016-Aug-16 13:28N 42°04' E 011°47'6 6.5
2016-Aug-16 12:32N 42°05' E 011°39'2511.3
2016-Aug-16 10:22N 42°08' E 011°06'1011.4
2016-Aug-16 09:31N 42°09' E 010°53'8 8.4
2016-Aug-16 08:31N 42°10' E 010°41'9 9.1
2016-Aug-16 07:33N 42°11' E 010°30'1210.8
2016-Aug-16 06:28N 42°13' E 010°14'4510.7
2016-Aug-16 02:17N 42°51' E 009°44'2011.5
2016-Aug-16 00:33N 43°09' E 009°33'12 9.1
2016-Aug-15 23:13N 43°08' E 009°16'711.1
2016-Aug-15 22:34N 43°07' E 009°06'1211.6
2016-Aug-15 21:31N 43°05' E 008°50'1111.5
2016-Aug-15 20:33N 43°03' E 008°35'1211.6
2016-Aug-15 19:34N 43°01' E 008°19'1211.7
2016-Aug-15 18:32N 42°59' E 008°03'1211.4
2016-Aug-15 17:31N 42°56' E 007°48'1111.3
2016-Aug-15 16:34N 42°55' E 007°33'1211.7
2016-Aug-15 15:34N 42°52' E 007°18'1212.0
2016-Aug-15 14:33N 42°50' E 007°01'1211.9
2016-Aug-15 13:33N 42°48' E 006°45'1111.2
2016-Aug-15 12:34N 42°46' E 006°30'1110.7
2016-Aug-15 11:34N 42°44' E 006°16'1110.6
2016-Aug-15 10:34N 42°46' E 006°02'1210.6
2016-Aug-15 09:26N 42°50' E 005°46'1010.8
2016-Aug-15 08:32N 42°52' E 005°33'1211.0
2016-Aug-15 07:24N 42°56' E 005°17'28 9.9
2016-Aug-15 04:33N 43°20' E 004°58'4 3.5
2016-Aug-15 03:32N 43°24' E 004°60'0 0.0
2016-Aug-15 02:32N 43°24' E 004°60'0 0.0
2016-Aug-15 01:32N 43°24' E 004°60'0 0.0
2016-Aug-15 00:32N 43°24' E 004°60'0 0.0
2016-Aug-14 23:32N 43°24' E 004°60'0 0.0
2016-Aug-14 22:29N 43°24' E 004°60'0 0.0
2016-Aug-14 21:32N 43°24' E 004°60'0 0.0
2016-Aug-14 20:32N 43°24' E 004°60'0 0.0
2016-Aug-14 19:32N 43°24' E 004°60'0 0.0
2016-Aug-14 18:32N 43°24' E 004°60'0 0.0
2016-Aug-14 17:32N 43°24' E 004°60'0 0.0
2016-Aug-14 16:32N 43°24' E 004°60'0 0.0
2016-Aug-14 15:32N 43°24' E 004°60'0 0.0
2016-Aug-14 14:32N 43°24' E 004°60'0 0.0
2016-Aug-14 13:32N 43°24' E 004°60'0 0.0
2016-Aug-14 12:32N 43°24' E 004°60'0 0.0
2016-Aug-14 11:32N 43°24' E 004°60'0 0.0
2016-Aug-14 10:32N 43°24' E 004°60'0 0.0
2016-Aug-14 09:32N 43°24' E 004°60'0 0.0
2016-Aug-14 08:32N 43°24' E 004°60'0 0.0
2016-Aug-14 07:33N 43°24' E 004°60'3 3.5
2016-Aug-14 06:33N 43°25' E 004°55'0 0.0
2016-Aug-14 04:33N 43°25' E 004°55'0 0.0
2016-Aug-14 03:33N 43°25' E 004°55'0 0.0
2016-Aug-14 02:33N 43°25' E 004°55'0 0.0
2016-Aug-14 01:33N 43°25' E 004°55'0 0.0
2016-Aug-14 00:33N 43°25' E 004°55'0 0.0
2016-Aug-13 23:33N 43°25' E 004°55'0 0.0
2016-Aug-13 22:27N 43°25' E 004°55'0 0.0
2016-Aug-13 21:33N 43°25' E 004°55'0 0.1
2016-Aug-13 20:33N 43°25' E 004°55'0 0.0
2016-Aug-13 19:30N 43°25' E 004°55'0 0.0
2016-Aug-13 18:33N 43°25' E 004°55'0 0.0
2016-Aug-13 17:33N 43°25' E 004°55'0 0.0
2016-Aug-13 16:33N 43°25' E 004°55'0 0.0
2016-Aug-13 15:33N 43°25' E 004°55'0 0.0
2016-Aug-13 14:33N 43°25' E 004°55'0 0.0
2016-Aug-13 13:33N 43°25' E 004°55'0 0.0
2016-Aug-13 12:33N 43°25' E 004°55'0 0.0
2016-Aug-13 11:33N 43°25' E 004°55'0 0.0
2016-Aug-13 10:30N 43°25' E 004°55'0 0.0
2016-Aug-13 09:33N 43°25' E 004°55'0 0.0
2016-Aug-13 08:33N 43°25' E 004°55'0 0.1
2016-Aug-13 07:33N 43°25' E 004°55'0 0.0
2016-Aug-13 06:33N 43°25' E 004°55'0 0.0
2016-Aug-13 05:33N 43°25' E 004°55'0 0.0
2016-Aug-13 04:30N 43°25' E 004°55'0 0.0
2016-Aug-13 03:33N 43°25' E 004°55'0 0.0
2016-Aug-13 02:33N 43°25' E 004°55'0 0.0
2016-Aug-13 01:33N 43°25' E 004°55'0 0.0
2016-Aug-13 00:30N 43°25' E 004°55'0 0.0
2016-Aug-12 23:30N 43°25' E 004°55'0 0.1
2016-Aug-12 22:33N 43°25' E 004°55'0 0.0
2016-Aug-12 21:33N 43°25' E 004°55'0 0.0
2016-Aug-12 20:33N 43°25' E 004°55'0 0.0
2016-Aug-12 19:30N 43°25' E 004°55'0 0.0
2016-Aug-12 18:33N 43°25' E 004°55'0 0.0
2016-Aug-12 17:33N 43°25' E 004°55'0 0.0
2016-Aug-12 16:33N 43°25' E 004°55'0 0.0
2016-Aug-12 15:30N 43°25' E 004°55'0 0.0
2016-Aug-12 14:33N 43°25' E 004°55'0 0.0
2016-Aug-12 13:33N 43°25' E 004°55'0 0.0
2016-Aug-12 12:33N 43°25' E 004°55'0 0.0
2016-Aug-12 11:33N 43°25' E 004°55'0 0.1
2016-Aug-12 10:30N 43°25' E 004°55'0 0.0
2016-Aug-12 09:33N 43°25' E 004°55'0 0.0
2016-Aug-12 08:30N 43°25' E 004°55'0 0.0
2016-Aug-12 07:30N 43°25' E 004°55'0 0.0
2016-Aug-12 06:30N 43°25' E 004°55'0 0.0
2016-Aug-12 05:30N 43°25' E 004°55'0 0.0
2016-Aug-12 04:30N 43°25' E 004°55'0 0.0
2016-Aug-12 03:30N 43°25' E 004°55'  

Dump ship's entire track history